createdAt,value
2022-08-06T00:01:54.335Z,9.40
2022-08-06T00:05:07.730Z,9.20
2022-08-06T00:08:01.800Z,7.60
2022-08-06T00:10:36.368Z,8.70
2022-08-06T00:13:19.814Z,8.30
2022-08-06T00:16:09.339Z,7.90
2022-08-06T00:22:35.037Z,9.90
2022-08-06T00:25:35.714Z,8.70
2022-08-06T00:28:16.442Z,9.80
2022-08-06T00:31:11.731Z,9.30
2022-08-06T00:34:14.792Z,9.40
2022-08-06T00:37:21.073Z,7.90
2022-08-06T00:40:24.203Z,7.40
2022-08-06T00:43:18.384Z,9.50
2022-08-06T00:46:15.964Z,9.10
2022-08-06T00:49:11.244Z,11.00
2022-08-06T00:51:52.171Z,7.00
2022-08-06T00:54:28.874Z,8.20
2022-08-06T00:57:12.172Z,10.90
2022-08-06T00:59:58.261Z,8.40
2022-08-06T01:02:36.055Z,7.10
2022-08-06T01:05:33.626Z,8.10
2022-08-06T01:08:05.338Z,8.40
2022-08-06T01:11:10.241Z,10.00
2022-08-06T01:14:38.576Z,11.10
2022-08-06T01:18:00.680Z,9.60
2022-08-06T01:21:56.306Z,11.20
2022-08-06T01:24:18.275Z,16.30
2022-08-06T01:28:29.339Z,13.90
2022-08-06T01:31:52.307Z,11.80
2022-08-06T01:34:53.409Z,10.00
2022-08-06T01:37:38.594Z,9.70
2022-08-06T01:40:21.183Z,11.50
2022-08-06T01:43:23.080Z,10.70
2022-08-06T01:46:31.098Z,7.90
2022-08-06T01:50:00.802Z,9.40
2022-08-06T01:52:41.224Z,7.50
2022-08-06T01:55:56.002Z,8.20
2022-08-06T01:59:04.731Z,9.30
2022-08-06T02:02:33.284Z,8.40
2022-08-06T02:05:31.863Z,6.80
2022-08-06T02:08:39.397Z,7.00
2022-08-06T02:12:03.189Z,7.80
2022-08-06T02:15:11.864Z,7.10
2022-08-06T02:18:35.024Z,7.10
2022-08-06T02:21:32.286Z,8.20
2022-08-06T02:26:53.134Z,8.90
2022-08-06T02:30:11.029Z,7.00
2022-08-06T02:33:03.004Z,6.90
2022-08-06T02:36:26.813Z,8.50
2022-08-06T02:39:53.927Z,7.90
2022-08-06T02:46:56.443Z,9.60
2022-08-06T02:50:01.823Z,8.00
2022-08-06T02:53:03.566Z,8.90
2022-08-06T02:55:59.681Z,7.40
2022-08-06T02:58:57.865Z,6.90
2022-08-06T03:01:55.577Z,7.10
2022-08-06T03:04:33.258Z,5.10
2022-08-06T03:07:26.459Z,9.10
2022-08-06T03:11:19.978Z,6.20
2022-08-06T03:15:03.880Z,6.90
2022-08-06T03:17:22.963Z,5.60
2022-08-06T03:20:36.421Z,5.70
2022-08-06T03:23:39.230Z,7.30
2022-08-06T03:26:33.567Z,8.30
2022-08-06T03:29:18.710Z,6.50
2022-08-06T03:32:51.323Z,8.70
2022-08-06T03:35:17.042Z,7.90
2022-08-06T03:38:03.977Z,11.70
2022-08-06T03:40:41.270Z,7.70
2022-08-06T03:44:03.095Z,9.20
2022-08-06T03:46:51.057Z,10.10
2022-08-06T03:50:49.742Z,7.80
2022-08-06T03:53:49.974Z,10.90
2022-08-06T03:56:55.365Z,9.00
2022-08-06T04:00:01.877Z,7.90
2022-08-06T04:07:14.033Z,8.60
2022-08-06T04:10:33.949Z,6.50
2022-08-06T04:14:05.120Z,6.20
2022-08-06T04:17:18.544Z,8.10
2022-08-06T04:20:00.821Z,8.20
2022-08-06T04:23:05.394Z,4.60
2022-08-06T04:26:18.955Z,5.90
2022-08-06T04:29:13.891Z,5.10
2022-08-06T04:37:05.061Z,5.30
2022-08-06T04:39:59.997Z,6.30
2022-08-06T04:43:05.330Z,7.70
2022-08-06T04:46:17.592Z,7.10
2022-08-06T04:54:00.212Z,7.30
2022-08-06T04:56:49.684Z,5.00
2022-08-06T04:59:50.142Z,6.50
2022-08-06T05:02:35.195Z,8.40
2022-08-06T05:05:15.749Z,7.20
2022-08-06T05:08:01.272Z,7.00
2022-08-06T05:10:47.888Z,5.00
2022-08-06T05:14:00.578Z,8.20
2022-08-06T05:16:53.746Z,6.30
2022-08-06T05:19:45.425Z,6.80
2022-08-06T05:22:53.734Z,10.10
2022-08-06T05:25:40.350Z,5.40
2022-08-06T05:28:27.694Z,7.70
2022-08-06T05:31:07.923Z,7.80
2022-08-06T05:34:21.031Z,8.80
2022-08-06T05:37:03.735Z,8.00
2022-08-06T05:40:11.932Z,8.60
2022-08-06T05:42:57.506Z,5.00
2022-08-06T05:45:37.395Z,7.50
2022-08-06T05:48:29.205Z,6.20
2022-08-06T05:51:13.395Z,4.70
2022-08-06T05:54:05.213Z,5.30
2022-08-06T05:56:54.627Z,5.20
2022-08-06T05:59:57.114Z,6.90
2022-08-06T06:02:46.719Z,7.50
2022-08-06T06:06:04.267Z,5.00
2022-08-06T06:08:29.653Z,4.30
2022-08-06T06:11:16.702Z,6.90
2022-08-06T06:14:36.776Z,7.00
2022-08-06T06:17:38.769Z,8.00
2022-08-06T06:21:03.333Z,7.70
2022-08-06T06:23:54.865Z,8.30
2022-08-06T06:26:45.205Z,8.70
2022-08-06T06:30:06.608Z,7.20
2022-08-06T06:32:41.875Z,7.20
2022-08-06T06:35:36.913Z,9.50
2022-08-06T06:38:43.492Z,6.20
2022-08-06T06:41:37.900Z,6.50
2022-08-06T06:44:24.434Z,5.10
2022-08-06T06:47:59.553Z,5.50
2022-08-06T06:50:51.819Z,6.40
2022-08-06T06:54:07.080Z,5.50
2022-08-06T06:56:54.882Z,4.80
2022-08-06T07:00:00.903Z,8.30
2022-08-06T07:02:37.194Z,7.60
2022-08-06T07:06:06.051Z,5.70
2022-08-06T07:08:32.009Z,4.20
2022-08-06T07:11:29.884Z,6.10
2022-08-06T07:14:43.595Z,7.10
2022-08-06T07:17:45.488Z,4.90
2022-08-06T07:21:01.925Z,5.20
2022-08-06T07:24:06.196Z,5.20
2022-08-06T07:26:56.603Z,2.70
2022-08-06T07:29:59.264Z,6.80
2022-08-06T07:32:51.419Z,5.80
2022-08-06T07:35:24.197Z,4.20
2022-08-06T07:38:13.748Z,8.90
2022-08-06T07:41:50.735Z,9.70
2022-08-06T07:44:55.609Z,10.00
2022-08-06T07:47:55.986Z,4.90
2022-08-06T07:50:32.113Z,5.70
2022-08-06T07:53:17.092Z,6.10
2022-08-06T07:55:52.621Z,8.70
2022-08-06T07:58:30.442Z,5.90
2022-08-06T08:05:39.275Z,4.80
2022-08-06T08:08:44.652Z,4.70
2022-08-06T08:12:25.413Z,4.30
2022-08-06T08:15:27.559Z,3.20
2022-08-06T08:19:05.696Z,4.00
2022-08-06T08:21:40.977Z,4.10
2022-08-06T08:24:26.430Z,4.80
2022-08-06T08:27:21.676Z,2.90
2022-08-06T08:30:24.409Z,5.90
2022-08-06T08:33:01.336Z,4.60
2022-08-06T08:35:38.681Z,4.40
2022-08-06T08:38:13.101Z,6.80
2022-08-06T08:41:00.602Z,6.90
2022-08-06T08:43:58.871Z,4.70
2022-08-06T08:46:33.120Z,4.30
2022-08-06T08:49:18.942Z,3.50
2022-08-06T08:51:53.629Z,8.00
2022-08-06T08:54:27.229Z,3.00
2022-08-06T08:58:39.844Z,4.30
2022-08-06T09:00:34.485Z,4.10
2022-08-06T09:03:28.792Z,3.40
2022-08-06T09:06:01.489Z,3.20
2022-08-06T09:09:01.791Z,2.50
2022-08-06T09:12:04.247Z,3.70
2022-08-06T09:18:25.989Z,2.20
2022-08-06T09:21:00.839Z,5.20
2022-08-06T09:23:36.766Z,2.30
2022-08-06T09:26:52.779Z,7.20
2022-08-06T09:30:29.972Z,2.80
2022-08-06T09:33:04.238Z,2.80
2022-08-06T09:40:27.363Z,2.70
2022-08-06T09:44:37.776Z,2.30
2022-08-06T09:48:17.234Z,4.00
2022-08-06T09:55:17.120Z,2.50
2022-08-06T09:58:11.129Z,2.20
2022-08-06T10:02:15.726Z,2.30
2022-08-06T10:05:17.794Z,2.30
2022-08-06T10:08:26.033Z,3.70
2022-08-06T10:19:37.520Z,3.30
2022-08-06T10:22:40.349Z,2.20
2022-08-06T10:25:31.047Z,2.00
2022-08-06T10:28:27.905Z,4.00
2022-08-06T10:31:01.561Z,2.20
2022-08-06T10:33:57.115Z,2.70
2022-08-06T10:40:08.217Z,3.10
2022-08-06T10:42:42.513Z,1.40
2022-08-06T10:45:26.863Z,3.30
2022-08-06T10:52:16.485Z,4.70
2022-08-06T10:55:58.928Z,2.40
2022-08-06T10:58:05.006Z,5.00
2022-08-06T11:05:25.688Z,2.60
2022-08-06T11:08:42.442Z,2.80
2022-08-06T11:14:49.767Z,2.60
2022-08-06T11:17:21.764Z,2.20
2022-08-06T11:19:56.425Z,2.20
2022-08-06T11:22:59.790Z,2.20
2022-08-06T11:27:01.923Z,2.60
2022-08-06T11:30:09.575Z,3.80
2022-08-06T11:32:50.812Z,2.60
2022-08-06T11:35:54.491Z,4.30
2022-08-06T11:39:10.196Z,6.40
2022-08-06T11:42:00.600Z,3.00
2022-08-06T11:44:35.880Z,2.00
2022-08-06T11:47:36.644Z,3.00
2022-08-06T11:50:27.438Z,1.80
2022-08-06T11:52:59.331Z,2.80
2022-08-06T11:55:30.846Z,1.80
2022-08-06T11:58:26.399Z,2.20
2022-08-06T12:01:33.959Z,2.20
2022-08-06T12:03:56.634Z,1.30
2022-08-06T12:06:29.865Z,2.20
2022-08-06T12:09:20.907Z,2.10
2022-08-06T12:11:55.812Z,2.40
2022-08-06T12:14:49.170Z,1.80
2022-08-06T12:17:44.991Z,2.60
2022-08-06T12:20:23.570Z,2.60
2022-08-06T12:23:12.883Z,1.00
2022-08-06T12:25:49.426Z,4.40
2022-08-06T12:28:22.254Z,0.90
2022-08-06T12:31:06.180Z,1.40
2022-08-06T12:33:53.714Z,1.60
2022-08-06T12:36:32.413Z,1.40
2022-08-06T12:39:54.684Z,1.90
2022-08-06T12:42:53.484Z,1.60
2022-08-06T12:46:05.185Z,1.90
2022-08-06T12:48:21.753Z,2.20
2022-08-06T12:52:01.922Z,1.40
2022-08-06T12:55:14.358Z,2.50
2022-08-06T12:58:41.427Z,2.40
2022-08-06T13:05:45.862Z,1.30
2022-08-06T13:14:13.315Z,2.40
2022-08-06T13:16:55.531Z,2.10
2022-08-06T13:19:32.941Z,1.80
2022-08-06T13:22:20.180Z,2.40
2022-08-06T13:30:31.641Z,2.60
2022-08-06T13:32:41.473Z,1.70
2022-08-06T13:35:30.601Z,1.60
2022-08-06T13:38:29.667Z,3.40
2022-08-06T13:41:56.070Z,3.10
2022-08-06T13:45:56.913Z,2.20
2022-08-06T13:52:39.346Z,2.40
2022-08-06T14:03:01.039Z,1.70
2022-08-06T14:05:35.439Z,3.00
2022-08-06T14:22:07.687Z,2.30
2022-08-06T14:30:25.680Z,1.90
2022-08-06T14:46:27.166Z,5.70
2022-08-06T14:50:14.609Z,4.20
2022-08-06T14:53:51.930Z,2.80
2022-08-06T14:58:24.536Z,2.60
2022-08-06T15:01:18.104Z,3.70
2022-08-06T15:04:23.679Z,5.00
2022-08-06T15:07:41.087Z,3.70
2022-08-06T15:19:30.339Z,2.20
2022-08-06T15:23:31.043Z,2.20
2022-08-06T15:26:42.322Z,3.20
2022-08-06T15:41:06.835Z,3.90
2022-08-06T15:44:41.686Z,2.30
2022-08-06T15:48:53.980Z,5.50
2022-08-06T15:51:31.372Z,4.30
2022-08-06T15:54:07.059Z,4.60
2022-08-06T15:56:52.146Z,2.70
2022-08-06T15:59:52.212Z,3.90
2022-08-06T16:03:08.216Z,4.20
2022-08-06T16:22:54.313Z,5.20
2022-08-06T16:28:59.131Z,5.10
2022-08-06T16:31:47.434Z,3.40
2022-08-06T16:34:30.645Z,3.90
2022-08-06T16:37:37.788Z,3.80
2022-08-06T16:40:12.974Z,7.60
2022-08-06T16:42:49.367Z,4.40
2022-08-06T16:45:23.497Z,3.70
2022-08-06T16:48:27.003Z,4.80
2022-08-06T16:51:02.284Z,4.30
2022-08-06T16:54:08.689Z,4.10
2022-08-06T16:56:26.766Z,4.00
2022-08-06T16:58:58.765Z,6.00
2022-08-06T17:02:21.544Z,4.60
2022-08-06T17:04:25.731Z,5.00
2022-08-06T17:07:03.274Z,5.60
2022-08-06T17:09:48.823Z,3.00
2022-08-06T17:12:20.718Z,3.70
2022-08-06T17:15:01.020Z,5.00
2022-08-06T17:17:48.644Z,5.00
2022-08-06T17:20:34.012Z,6.00
2022-08-06T17:24:06.558Z,4.80
2022-08-06T17:30:37.913Z,6.00
2022-08-06T17:33:13.456Z,5.60
2022-08-06T17:38:44.755Z,5.10
2022-08-06T17:46:29.260Z,5.80
2022-08-06T17:49:07.462Z,5.30
2022-08-06T17:51:39.611Z,4.60
2022-08-06T17:54:26.583Z,5.90
2022-08-06T17:57:06.976Z,5.80
2022-08-06T18:00:33.076Z,5.30
2022-08-06T18:03:06.975Z,4.50
2022-08-06T18:05:51.324Z,6.10
2022-08-06T18:08:36.025Z,3.70
2022-08-06T18:11:08.400Z,5.50
2022-08-06T18:13:57.878Z,5.60
2022-08-06T18:16:38.236Z,4.70
2022-08-06T18:19:13.201Z,5.80
2022-08-06T18:21:50.739Z,4.60
2022-08-06T18:24:25.604Z,4.50
2022-08-06T18:26:57.324Z,5.00
2022-08-06T18:29:58.948Z,3.50
2022-08-06T18:32:33.828Z,4.50
2022-08-06T18:35:17.654Z,4.00
2022-08-06T18:38:01.740Z,6.50
2022-08-06T18:40:40.793Z,4.90
2022-08-06T18:43:23.766Z,4.90
2022-08-06T18:46:16.911Z,5.60
2022-08-06T18:49:15.573Z,5.50
2022-08-06T18:51:51.779Z,7.30
2022-08-06T18:54:56.489Z,4.90
2022-08-06T18:57:38.472Z,5.80
2022-08-06T19:00:34.670Z,3.70
2022-08-06T19:03:43.785Z,4.80
2022-08-06T19:07:14.863Z,7.70
2022-08-06T19:10:14.931Z,8.30
2022-08-06T19:12:52.680Z,7.30
2022-08-06T19:15:45.991Z,5.10
2022-08-06T19:18:25.707Z,7.20
2022-08-06T19:20:59.894Z,5.90
2022-08-06T19:26:48.013Z,5.20
2022-08-06T19:30:02.043Z,3.80
2022-08-06T19:33:01.619Z,6.00
2022-08-06T19:36:07.554Z,3.90
2022-08-06T19:38:49.548Z,5.90
2022-08-06T19:42:06.680Z,4.60
2022-08-06T19:45:04.511Z,6.30
2022-08-06T19:47:59.636Z,6.40
2022-08-06T19:50:39.860Z,5.90
2022-08-06T19:53:12.813Z,4.40
2022-08-06T19:56:08.250Z,4.20
2022-08-06T19:58:43.872Z,6.10
2022-08-06T20:01:35.686Z,4.20
2022-08-06T20:04:16.632Z,6.50
2022-08-06T20:07:01.270Z,3.40
2022-08-06T20:09:58.909Z,5.70
2022-08-06T20:12:43.445Z,4.60
2022-08-06T20:15:27.248Z,3.90
2022-08-06T20:18:00.263Z,5.70
2022-08-06T20:20:39.569Z,7.40
2022-08-06T20:23:12.631Z,4.80
2022-08-06T20:26:10.574Z,4.60
2022-08-06T20:29:10.362Z,6.00
2022-08-06T20:31:55.154Z,4.60
2022-08-06T20:34:29.617Z,4.40
2022-08-06T20:37:01.527Z,5.80
2022-08-06T20:39:39.738Z,5.50
2022-08-06T20:42:22.311Z,4.60
2022-08-06T20:44:59.636Z,7.30
2022-08-06T20:47:49.566Z,7.90
2022-08-06T20:50:46.759Z,3.90
2022-08-06T20:53:32.344Z,5.10
2022-08-06T20:56:05.187Z,6.30
2022-08-06T20:58:37.968Z,6.60
2022-08-06T21:01:12.681Z,5.10
2022-08-06T21:05:14.627Z,7.80
2022-08-06T21:06:54.039Z,6.10
2022-08-06T21:09:36.250Z,7.30
2022-08-06T21:12:08.474Z,6.70
2022-08-06T21:14:49.049Z,7.30
2022-08-06T21:17:35.465Z,5.40
2022-08-06T21:20:10.658Z,7.50
2022-08-06T21:22:48.360Z,4.60
2022-08-06T21:25:22.503Z,10.50
2022-08-06T21:27:58.368Z,5.30
2022-08-06T21:30:32.276Z,9.20
2022-08-06T21:33:06.983Z,5.70
2022-08-06T21:35:42.350Z,5.60
2022-08-06T21:38:50.621Z,5.10
2022-08-06T21:41:55.354Z,4.60
2022-08-06T21:46:09.337Z,5.40
2022-08-06T21:49:02.038Z,8.20
2022-08-06T21:52:27.904Z,5.70
2022-08-06T21:56:37.363Z,5.40
2022-08-06T21:58:21.969Z,6.40
2022-08-06T22:00:58.764Z,4.20
2022-08-06T22:04:38.630Z,5.00
2022-08-06T22:06:37.982Z,6.50
2022-08-06T22:09:35.413Z,5.80
2022-08-06T22:12:41.272Z,9.10
2022-08-06T22:15:12.972Z,7.00
2022-08-06T22:18:01.982Z,6.50
2022-08-06T22:21:00.145Z,6.30
2022-08-06T22:23:32.907Z,7.60
2022-08-06T22:26:26.159Z,7.90
2022-08-06T22:29:04.009Z,10.10
2022-08-06T22:31:56.494Z,11.20
2022-08-06T22:34:37.381Z,7.80
2022-08-06T22:37:38.427Z,9.30
2022-08-06T22:40:49.653Z,11.50
2022-08-06T22:43:29.546Z,10.70
2022-08-06T22:46:19.285Z,7.30
2022-08-06T22:49:15.185Z,8.00
2022-08-06T22:51:51.826Z,7.70
2022-08-06T22:54:57.981Z,7.40
2022-08-06T22:58:47.429Z,7.50
2022-08-06T23:00:57.844Z,8.60
2022-08-06T23:03:29.792Z,8.30
2022-08-06T23:06:40.842Z,8.60
2022-08-06T23:09:30.952Z,7.60
2022-08-06T23:12:11.339Z,8.60
2022-08-06T23:14:50.579Z,9.20
2022-08-06T23:17:40.253Z,10.40
2022-08-06T23:20:31.636Z,8.50
2022-08-06T23:23:06.494Z,6.70
2022-08-06T23:26:02.210Z,9.50
2022-08-06T23:28:32.242Z,5.90
2022-08-06T23:33:59.734Z,8.60
2022-08-06T23:36:35.050Z,7.40
2022-08-06T23:39:28.780Z,8.60
2022-08-06T23:42:22.023Z,10.10
2022-08-06T23:44:56.341Z,10.10
2022-08-06T23:47:54.040Z,12.30
2022-08-06T23:50:52.765Z,9.00
2022-08-06T23:54:08.139Z,6.10
2022-08-06T23:56:26.704Z,8.30
2022-08-06T23:59:03.163Z,7.20
